createdAt,value
2022-11-28T00:00:12.411Z,3.98
2022-11-28T00:02:46.142Z,3.99
2022-11-28T00:05:14.643Z,3.99
2022-11-28T00:07:43.063Z,3.96
2022-11-28T00:10:15.493Z,3.94
2022-11-28T00:12:46.232Z,3.94
2022-11-28T00:15:16.155Z,3.95
2022-11-28T00:17:44.827Z,3.96
2022-11-28T00:20:14.863Z,3.97
2022-11-28T00:22:44.983Z,3.96
2022-11-28T00:25:14.698Z,3.98
2022-11-28T00:27:47.225Z,3.98
2022-11-28T00:30:16.518Z,4.03
2022-11-28T00:32:48.044Z,4.05
2022-11-28T00:35:16.732Z,4.07
2022-11-28T00:37:44.960Z,4.04
2022-11-28T00:40:13.909Z,4.02
2022-11-28T00:42:42.073Z,3.98
2022-11-28T00:45:14.368Z,3.96
2022-11-28T00:47:44.137Z,3.93
2022-11-28T00:50:15.125Z,3.92
2022-11-28T00:52:45.833Z,3.90
2022-11-28T00:55:14.740Z,3.88
2022-11-28T00:57:43.131Z,3.86
2022-11-28T01:00:14.274Z,3.83
2022-11-28T01:02:42.545Z,3.84
2022-11-28T01:05:11.324Z,3.82
2022-11-28T01:07:42.688Z,3.81
2022-11-28T01:10:13.204Z,3.80
2022-11-28T01:12:41.699Z,3.74
2022-11-28T01:15:14.200Z,3.71
2022-11-28T01:17:42.760Z,3.65
2022-11-28T01:20:13.228Z,3.59
2022-11-28T01:22:42.009Z,3.54
2022-11-28T01:25:14.203Z,3.46
2022-11-28T01:27:45.098Z,3.40
2022-11-28T01:30:16.334Z,3.35
2022-11-28T01:32:48.470Z,3.30
2022-11-28T01:35:17.588Z,3.27
2022-11-28T01:37:46.584Z,3.26
2022-11-28T01:40:15.650Z,3.24
2022-11-28T01:42:46.212Z,3.20
2022-11-28T01:45:23.141Z,3.18
2022-11-28T01:47:58.046Z,3.18
2022-11-28T01:50:27.881Z,3.20
2022-11-28T01:53:02.001Z,3.21
2022-11-28T01:55:35.304Z,3.26
2022-11-28T01:58:04.719Z,3.31
2022-11-28T02:00:37.779Z,3.35
2022-11-28T02:03:14.225Z,3.41
2022-11-28T02:05:43.993Z,3.49
2022-11-28T02:08:14.721Z,3.53
2022-11-28T02:10:56.978Z,3.53
2022-11-28T02:13:40.130Z,3.60
2022-11-28T02:16:31.840Z,3.64
2022-11-28T02:19:17.540Z,3.67
2022-11-28T02:22:00.763Z,3.68
2022-11-28T02:25:04.586Z,3.72
2022-11-28T02:28:07.998Z,3.72
2022-11-28T02:30:49.657Z,3.67
2022-11-28T02:33:27.053Z,3.66
2022-11-28T02:36:05.689Z,3.66
2022-11-28T02:38:47.526Z,3.67
2022-11-28T02:41:21.819Z,3.61
2022-11-28T02:44:01.488Z,3.60
2022-11-28T02:46:42.140Z,3.59
2022-11-28T02:49:20.681Z,3.60
2022-11-28T02:51:54.253Z,3.54
2022-11-28T02:54:28.573Z,3.53
2022-11-28T02:56:59.173Z,3.52
2022-11-28T02:59:34.917Z,3.49
2022-11-28T03:02:05.791Z,3.48
2022-11-28T03:04:45.795Z,3.43
2022-11-28T03:07:30.304Z,3.41
2022-11-28T03:10:10.745Z,3.38
2022-11-28T03:12:52.761Z,3.37
2022-11-28T03:15:31.393Z,3.36
2022-11-28T03:18:09.993Z,3.35
2022-11-28T03:20:49.211Z,3.34
2022-11-28T03:23:22.806Z,3.31
2022-11-28T03:26:00.037Z,3.31
2022-11-28T03:28:38.118Z,3.32
2022-11-28T03:31:13.143Z,3.36
2022-11-28T03:33:46.068Z,3.37
2022-11-28T03:36:20.750Z,3.33
2022-11-28T03:38:54.140Z,3.32
2022-11-28T03:41:29.832Z,3.32
2022-11-28T03:44:03.448Z,3.32
2022-11-28T03:46:37.769Z,3.32
2022-11-28T03:49:10.358Z,3.30
2022-11-28T03:51:48.074Z,3.29
2022-11-28T03:54:23.625Z,3.26
2022-11-28T03:56:58.605Z,3.22
2022-11-28T03:59:34.625Z,3.19
2022-11-28T04:02:09.489Z,3.17
2022-11-28T04:04:45.374Z,3.17
2022-11-28T04:07:25.063Z,3.17
2022-11-28T04:10:01.362Z,3.16
2022-11-28T04:12:38.590Z,3.16
2022-11-28T04:15:13.900Z,3.13
2022-11-28T04:17:52.570Z,3.08
2022-11-28T04:20:30.740Z,3.06
2022-11-28T04:23:06.571Z,3.06
2022-11-28T04:25:39.206Z,3.09
2022-11-28T04:28:12.392Z,3.12
2022-11-28T04:30:45.338Z,3.13
2022-11-28T04:33:15.501Z,3.14
2022-11-28T04:35:47.803Z,3.10
2022-11-28T04:38:18.969Z,3.12
2022-11-28T04:40:53.715Z,3.11
2022-11-28T04:43:29.042Z,3.10
2022-11-28T04:46:05.456Z,3.06
2022-11-28T04:48:34.953Z,3.01
2022-11-28T04:51:14.537Z,2.97
2022-11-28T04:53:53.532Z,2.95
2022-11-28T04:56:26.689Z,2.97
2022-11-28T04:58:57.519Z,2.94
2022-11-28T05:01:31.380Z,2.94
2022-11-28T05:04:02.766Z,2.94
2022-11-28T05:06:34.135Z,3.00
2022-11-28T05:09:05.917Z,2.98
2022-11-28T05:11:37.188Z,3.03
2022-11-28T05:14:06.518Z,3.05
2022-11-28T05:16:36.244Z,3.05
2022-11-28T05:19:05.823Z,3.03
2022-11-28T05:21:35.862Z,3.03
2022-11-28T05:24:06.290Z,3.01
2022-11-28T05:26:35.589Z,3.00
2022-11-28T05:29:04.139Z,2.99
2022-11-28T05:31:32.468Z,2.99
2022-11-28T05:34:01.264Z,2.98
2022-11-28T05:36:30.036Z,2.96
2022-11-28T05:38:59.315Z,2.96
2022-11-28T05:41:31.516Z,2.96
2022-11-28T05:44:01.311Z,2.96
2022-11-28T05:46:32.715Z,2.94
2022-11-28T05:49:02.695Z,2.92
2022-11-28T05:51:31.322Z,2.90
2022-11-28T05:54:03.456Z,2.89
2022-11-28T05:56:42.103Z,2.87
2022-11-28T05:59:11.588Z,2.88
2022-11-28T06:01:41.081Z,2.92
2022-11-28T06:04:13.502Z,2.90
2022-11-28T06:06:43.108Z,2.89
2022-11-28T06:09:11.352Z,2.88
2022-11-28T06:11:41.432Z,2.88
2022-11-28T06:14:11.974Z,2.88
2022-11-28T06:16:46.311Z,2.89
2022-11-28T06:19:20.309Z,2.90
2022-11-28T06:21:50.943Z,2.87
2022-11-28T06:24:19.752Z,2.86
2022-11-28T06:26:50.258Z,2.89
2022-11-28T06:29:21.696Z,2.90
2022-11-28T06:31:50.118Z,2.91
2022-11-28T06:34:19.274Z,2.91
2022-11-28T06:36:55.117Z,2.94
2022-11-28T06:39:23.882Z,2.95
2022-11-28T06:41:53.822Z,2.99
2022-11-28T06:44:25.720Z,3.00
2022-11-28T06:46:55.498Z,3.10
2022-11-28T06:49:26.287Z,3.14
2022-11-28T06:51:55.435Z,3.14
2022-11-28T06:54:24.209Z,3.14
2022-11-28T06:56:53.954Z,3.13
2022-11-28T06:59:22.654Z,3.11
2022-11-28T07:01:51.756Z,3.10
2022-11-28T07:04:19.935Z,3.08
2022-11-28T07:06:48.339Z,3.04
2022-11-28T07:09:21.496Z,3.04
2022-11-28T07:11:50.279Z,3.02
2022-11-28T07:14:24.301Z,3.04
2022-11-28T07:16:54.674Z,3.06
2022-11-28T07:19:26.101Z,3.05
2022-11-28T07:21:54.653Z,3.06
2022-11-28T07:24:26.432Z,3.07
2022-11-28T07:26:54.729Z,3.06
2022-11-28T07:29:30.721Z,3.09
2022-11-28T07:32:00.062Z,3.09
2022-11-28T07:34:29.669Z,3.13
2022-11-28T07:36:58.360Z,3.15
2022-11-28T07:39:38.989Z,3.17
2022-11-28T07:42:09.175Z,3.19
2022-11-28T07:44:40.155Z,3.25
2022-11-28T07:47:08.309Z,3.30
2022-11-28T07:49:38.629Z,3.32
2022-11-28T07:52:07.012Z,3.37
2022-11-28T07:54:35.258Z,3.43
2022-11-28T07:57:11.941Z,3.50
2022-11-28T07:59:49.018Z,3.55
2022-11-28T08:02:17.522Z,3.60
2022-11-28T08:04:49.598Z,3.66
2022-11-28T08:07:23.161Z,3.73
2022-11-28T08:09:53.098Z,3.79
2022-11-28T08:12:21.677Z,3.85
2022-11-28T08:14:53.561Z,3.94
2022-11-28T08:17:22.420Z,4.01
2022-11-28T08:19:51.700Z,4.07
2022-11-28T08:22:20.208Z,4.14
2022-11-28T08:24:48.338Z,4.17
2022-11-28T08:27:16.583Z,4.27
2022-11-28T08:29:49.125Z,4.35
2022-11-28T08:32:21.982Z,4.40
2022-11-28T08:34:52.382Z,4.43
2022-11-28T08:37:20.732Z,4.43
2022-11-28T08:39:52.691Z,4.55
2022-11-28T08:42:23.158Z,4.69
2022-11-28T08:44:54.855Z,4.78
2022-11-28T08:47:24.658Z,4.89
2022-11-28T08:49:58.998Z,5.00
2022-11-28T08:52:30.132Z,5.08
2022-11-28T08:55:00.555Z,5.17
2022-11-28T08:57:30.188Z,5.26
2022-11-28T08:59:58.995Z,5.34
2022-11-28T09:02:28.946Z,5.46
2022-11-28T09:04:57.836Z,5.54
2022-11-28T09:07:26.755Z,5.53
2022-11-28T09:09:57.478Z,5.66
2022-11-28T09:12:26.022Z,5.73
2022-11-28T09:14:55.099Z,5.82
2022-11-28T09:17:25.864Z,5.95
2022-11-28T09:19:55.929Z,6.00
2022-11-28T09:22:24.599Z,6.18
2022-11-28T09:24:53.200Z,6.34
2022-11-28T09:27:23.742Z,6.41
2022-11-28T09:29:52.249Z,6.50
2022-11-28T09:32:20.615Z,6.63
2022-11-28T09:34:51.323Z,6.73
2022-11-28T09:37:21.042Z,6.81
2022-11-28T09:40:11.362Z,6.80
2022-11-28T09:42:42.214Z,6.88
2022-11-28T09:45:17.731Z,7.06
2022-11-28T09:47:54.319Z,7.14
2022-11-28T09:50:26.365Z,7.36
2022-11-28T09:53:02.088Z,7.47
2022-11-28T09:55:37.318Z,7.48
2022-11-28T09:58:13.167Z,7.34
2022-11-28T10:00:54.088Z,7.47
2022-11-28T10:03:40.226Z,7.64
2022-11-28T10:06:19.133Z,7.48
2022-11-28T10:09:03.985Z,7.64
2022-11-28T10:11:46.376Z,7.50
2022-11-28T10:14:45.320Z,7.46
2022-11-28T10:17:21.814Z,7.43
2022-11-28T10:19:56.236Z,7.34
2022-11-28T10:22:47.273Z,7.24
2022-11-28T10:25:23.896Z,7.22
2022-11-28T10:27:52.381Z,7.25
2022-11-28T10:30:24.771Z,7.22
2022-11-28T10:32:59.686Z,7.19
2022-11-28T10:35:36.731Z,7.23
2022-11-28T10:38:13.157Z,7.13
2022-11-28T10:40:50.965Z,7.07
2022-11-28T10:43:31.159Z,7.08
2022-11-28T10:46:23.719Z,7.24
2022-11-28T10:50:01.943Z,7.08
2022-11-28T10:52:39.406Z,7.05
2022-11-28T10:55:27.069Z,7.02
2022-11-28T10:58:09.097Z,6.86
2022-11-28T11:00:38.926Z,6.77
2022-11-28T11:03:11.636Z,6.75
2022-11-28T11:05:42.550Z,6.70
2022-11-28T11:08:19.578Z,6.83
2022-11-28T11:10:51.367Z,6.93
2022-11-28T11:13:26.752Z,6.98
2022-11-28T11:16:00.699Z,6.96
2022-11-28T11:18:32.728Z,6.99
2022-11-28T11:21:17.017Z,7.24
2022-11-28T11:23:47.118Z,7.22
2022-11-28T11:26:21.305Z,7.21
2022-11-28T11:28:54.819Z,7.31
2022-11-28T11:31:28.271Z,7.33
2022-11-28T11:34:04.929Z,7.40
2022-11-28T11:36:39.059Z,7.52
2022-11-28T11:39:23.745Z,7.54
2022-11-28T11:42:10.249Z,7.54
2022-11-28T11:44:42.266Z,7.54
2022-11-28T11:47:12.128Z,7.66
2022-11-28T11:49:44.681Z,7.68
2022-11-28T11:52:22.711Z,7.77
2022-11-28T11:54:59.132Z,7.91
2022-11-28T11:57:34.762Z,7.81
2022-11-28T12:00:08.309Z,7.65
2022-11-28T12:02:46.818Z,7.64
2022-11-28T12:05:19.988Z,7.71
2022-11-28T12:07:57.563Z,7.76
2022-11-28T12:10:30.511Z,7.70
2022-11-28T12:13:01.609Z,7.61
2022-11-28T12:15:42.444Z,7.62
2022-11-28T12:18:25.675Z,7.63
2022-11-28T12:21:16.033Z,7.71
2022-11-28T12:24:05.916Z,7.74
2022-11-28T12:26:43.568Z,7.77
2022-11-28T12:29:44.661Z,7.87
2022-11-28T12:32:29.781Z,7.81
2022-11-28T12:35:16.837Z,7.66
2022-11-28T12:38:12.765Z,7.67
2022-11-28T12:40:59.199Z,7.64
2022-11-28T12:43:42.799Z,7.55
2022-11-28T12:46:21.249Z,7.75
2022-11-28T12:49:04.386Z,7.88
2022-11-28T12:51:45.005Z,7.98
2022-11-28T12:54:35.625Z,8.23
2022-11-28T12:57:13.256Z,8.20
2022-11-28T12:59:49.522Z,8.29
2022-11-28T13:02:29.734Z,8.26
2022-11-28T13:05:28.660Z,8.26
2022-11-28T13:08:32.517Z,8.09
2022-11-28T13:11:14.258Z,8.05
2022-11-28T13:13:48.607Z,8.02
2022-11-28T13:16:28.382Z,7.94
2022-11-28T13:19:04.333Z,8.05
2022-11-28T13:21:43.111Z,8.07
2022-11-28T13:24:29.817Z,8.07
2022-11-28T13:27:10.723Z,8.10
2022-11-28T13:29:47.723Z,8.25
2022-11-28T13:32:25.276Z,8.17
2022-11-28T13:34:55.710Z,8.30
2022-11-28T13:40:58.279Z,8.43
2022-11-28T13:43:35.085Z,8.33
2022-11-28T13:46:08.331Z,8.19
2022-11-28T13:49:19.892Z,8.23
2022-11-28T13:52:10.889Z,8.28
2022-11-28T13:54:47.775Z,8.28
2022-11-28T13:57:31.986Z,8.16
2022-11-28T14:00:07.131Z,8.22
2022-11-28T14:02:47.514Z,8.19
2022-11-28T14:05:26.947Z,8.03
2022-11-28T14:07:57.788Z,8.17
2022-11-28T14:13:36.098Z,8.29
2022-11-28T14:16:17.707Z,8.22
2022-11-28T14:19:04.542Z,8.23
2022-11-28T14:21:46.528Z,8.23
2022-11-28T14:24:24.462Z,8.23
2022-11-28T14:27:03.506Z,8.19
2022-11-28T14:29:39.161Z,8.20
2022-11-28T14:32:29.628Z,8.21
2022-11-28T14:34:56.955Z,8.18
2022-11-28T14:37:52.781Z,8.13
2022-11-28T14:41:06.848Z,8.08
2022-11-28T14:43:38.077Z,8.02
2022-11-28T14:46:32.667Z,8.06
2022-11-28T14:49:23.552Z,7.93
2022-11-28T14:52:38.495Z,7.94
2022-11-28T14:55:18.987Z,7.83
2022-11-28T14:57:59.639Z,7.77
2022-11-28T15:00:32.753Z,7.72
2022-11-28T15:03:17.976Z,7.66
2022-11-28T15:05:48.803Z,7.61
2022-11-28T15:08:55.211Z,7.54
2022-11-28T15:11:48.047Z,7.43
2022-11-28T15:14:22.987Z,7.35
2022-11-28T15:16:56.570Z,7.28
2022-11-28T15:19:29.804Z,7.24
2022-11-28T15:23:00.465Z,7.16
2022-11-28T15:25:35.461Z,7.10
2022-11-28T15:28:17.657Z,7.07
2022-11-28T15:30:49.101Z,7.01
2022-11-28T15:33:18.419Z,6.97
2022-11-28T15:35:58.287Z,6.94
2022-11-28T15:38:29.709Z,6.88
2022-11-28T15:41:00.197Z,6.85
2022-11-28T15:43:30.521Z,6.80
2022-11-28T15:46:02.889Z,6.77
2022-11-28T15:48:39.906Z,6.77
2022-11-28T15:51:26.372Z,6.76
2022-11-28T15:53:55.310Z,6.77
2022-11-28T15:56:24.717Z,6.76
2022-11-28T15:58:54.406Z,6.76
2022-11-28T16:01:25.602Z,6.75
2022-11-28T16:03:57.571Z,6.76
2022-11-28T16:06:32.189Z,6.75
2022-11-28T16:09:03.856Z,6.75
2022-11-28T16:11:33.619Z,6.75
2022-11-28T16:14:09.434Z,6.74
2022-11-28T16:16:40.159Z,6.74
2022-11-28T16:19:19.479Z,6.75
2022-11-28T16:21:58.845Z,6.74
2022-11-28T16:24:38.161Z,6.73
2022-11-28T16:27:08.566Z,6.74
2022-11-28T16:29:38.878Z,6.72
2022-11-28T16:32:09.265Z,6.72
2022-11-28T16:34:49.199Z,6.70
2022-11-28T16:37:23.223Z,6.67
2022-11-28T16:40:02.388Z,6.66
2022-11-28T16:42:31.488Z,6.66
2022-11-28T16:45:08.570Z,6.64
2022-11-28T16:47:40.208Z,6.64
2022-11-28T16:50:21.384Z,6.62
2022-11-28T16:52:54.729Z,6.61
2022-11-28T16:55:44.336Z,6.61
2022-11-28T16:58:23.083Z,6.60
2022-11-28T17:01:03.232Z,6.62
2022-11-28T17:03:44.404Z,6.63
2022-11-28T17:06:28.449Z,6.65
2022-11-28T17:08:59.062Z,6.65
2022-11-28T17:11:33.169Z,6.66
2022-11-28T17:14:08.782Z,6.65
2022-11-28T17:16:40.859Z,6.66
2022-11-28T17:19:09.442Z,6.66
2022-11-28T17:21:42.910Z,6.64
2022-11-28T17:24:18.815Z,6.64
2022-11-28T17:26:47.445Z,6.63
2022-11-28T17:29:18.171Z,6.64
2022-11-28T17:31:48.719Z,6.62
2022-11-28T17:34:19.193Z,6.60
2022-11-28T17:36:49.418Z,6.60
2022-11-28T17:39:22.343Z,6.57
2022-11-28T17:41:50.898Z,6.56
2022-11-28T17:44:21.729Z,6.56
2022-11-28T17:46:52.652Z,6.54
2022-11-28T17:49:25.538Z,6.54
2022-11-28T17:51:58.952Z,6.52
2022-11-28T17:54:28.769Z,6.50
2022-11-28T17:57:01.851Z,6.46
2022-11-28T17:59:30.657Z,6.46
2022-11-28T18:02:00.734Z,6.43
2022-11-28T18:04:28.874Z,6.40
2022-11-28T18:07:00.056Z,6.41
2022-11-28T18:09:32.640Z,6.40
2022-11-28T18:12:01.015Z,6.39
2022-11-28T18:14:33.965Z,6.39
2022-11-28T18:17:04.854Z,6.39
2022-11-28T18:19:34.177Z,6.39
2022-11-28T18:22:03.265Z,6.38
2022-11-28T18:24:34.450Z,6.37
2022-11-28T18:27:05.529Z,6.36
2022-11-28T18:29:36.315Z,6.33
2022-11-28T18:32:07.261Z,6.33
2022-11-28T18:34:36.846Z,6.31
2022-11-28T18:37:09.898Z,6.33
2022-11-28T18:39:45.984Z,6.35
2022-11-28T18:42:16.828Z,6.34
2022-11-28T18:44:45.282Z,6.34
2022-11-28T18:47:15.017Z,6.33
2022-11-28T18:49:44.470Z,6.33
2022-11-28T18:52:24.102Z,6.34
2022-11-28T18:54:53.922Z,6.34
2022-11-28T18:57:22.521Z,6.33
2022-11-28T18:59:55.313Z,6.33
2022-11-28T19:02:25.132Z,6.33
2022-11-28T19:04:53.748Z,6.34
2022-11-28T19:07:22.135Z,6.35
2022-11-28T19:09:51.042Z,6.33
2022-11-28T19:12:25.032Z,6.33
2022-11-28T19:15:00.315Z,6.32
2022-11-28T19:17:30.686Z,6.31
2022-11-28T19:19:59.364Z,6.27
2022-11-28T19:22:31.396Z,6.24
2022-11-28T19:24:59.890Z,6.23
2022-11-28T19:27:35.685Z,6.22
2022-11-28T19:30:04.902Z,6.21
2022-11-28T19:32:33.354Z,6.21
2022-11-28T19:35:02.597Z,6.18
2022-11-28T19:37:32.356Z,6.15
2022-11-28T19:40:02.743Z,6.11
2022-11-28T19:42:35.892Z,6.10
2022-11-28T19:45:05.965Z,6.06
2022-11-28T19:47:34.217Z,6.06
2022-11-28T19:50:04.159Z,6.05
2022-11-28T19:52:34.136Z,6.06
2022-11-28T19:55:08.512Z,6.06
2022-11-28T19:57:42.147Z,6.06
2022-11-28T20:00:12.799Z,6.08
2022-11-28T20:02:47.701Z,6.09
2022-11-28T20:05:16.359Z,6.10
2022-11-28T20:07:44.760Z,6.11
2022-11-28T20:10:15.202Z,6.12
2022-11-28T20:12:46.693Z,6.12
2022-11-28T20:15:18.380Z,6.14
2022-11-28T20:17:47.626Z,6.16
2022-11-28T20:20:17.019Z,6.17
2022-11-28T20:22:45.774Z,6.23
2022-11-28T20:25:20.510Z,6.24
2022-11-28T20:27:52.868Z,6.24
2022-11-28T20:30:21.783Z,6.25
2022-11-28T20:32:52.022Z,6.26
2022-11-28T20:35:23.229Z,6.27
2022-11-28T20:37:54.714Z,6.29
2022-11-28T20:40:23.583Z,6.30
2022-11-28T20:42:53.279Z,6.32
2022-11-28T20:45:22.211Z,6.32
2022-11-28T20:47:50.615Z,6.31
2022-11-28T20:50:18.766Z,6.32
2022-11-28T20:52:48.344Z,6.30
2022-11-28T20:55:16.524Z,6.29
2022-11-28T20:57:45.556Z,6.30
2022-11-28T21:00:17.102Z,6.31
2022-11-28T21:02:47.978Z,6.31
2022-11-28T21:05:17.779Z,6.31
2022-11-28T21:07:46.537Z,6.33
2022-11-28T21:10:15.145Z,6.34
2022-11-28T21:12:44.381Z,6.33
2022-11-28T21:15:15.602Z,6.36
2022-11-28T21:17:47.365Z,6.37
2022-11-28T21:20:15.568Z,6.37
2022-11-28T21:22:44.554Z,6.37
2022-11-28T21:25:13.654Z,6.37
2022-11-28T21:27:44.311Z,6.37
2022-11-28T21:30:13.215Z,6.37
2022-11-28T21:32:43.024Z,6.38
2022-11-28T21:35:11.285Z,6.38
2022-11-28T21:37:41.048Z,6.38
2022-11-28T21:40:10.850Z,6.40
2022-11-28T21:42:39.404Z,6.39
2022-11-28T21:45:10.425Z,6.39
2022-11-28T21:47:40.422Z,6.38
2022-11-28T21:50:11.961Z,6.40
2022-11-28T21:52:41.754Z,6.41
2022-11-28T21:55:10.957Z,6.42
2022-11-28T21:57:42.016Z,6.41
2022-11-28T22:00:31.279Z,6.39
2022-11-28T22:05:52.737Z,6.36
2022-11-28T22:08:21.603Z,6.36
2022-11-28T22:10:50.031Z,6.38
2022-11-28T22:13:18.710Z,6.38
2022-11-28T22:15:49.052Z,6.37
2022-11-28T22:18:18.259Z,6.38
2022-11-28T22:20:50.227Z,6.38
2022-11-28T22:23:22.314Z,6.38
2022-11-28T22:25:52.085Z,6.39
2022-11-28T22:28:22.954Z,6.38
2022-11-28T22:30:51.928Z,6.37
2022-11-28T22:33:21.083Z,6.37
2022-11-28T22:35:53.385Z,6.37
2022-11-28T22:38:23.552Z,6.37
2022-11-28T22:40:52.902Z,6.36
2022-11-28T22:43:21.923Z,6.36
2022-11-28T22:45:56.671Z,6.36
2022-11-28T22:48:27.858Z,6.36
2022-11-28T22:50:57.196Z,6.37
2022-11-28T22:53:29.410Z,6.38
2022-11-28T22:55:59.160Z,6.38
2022-11-28T22:58:27.546Z,6.38
2022-11-28T23:00:56.037Z,6.39
2022-11-28T23:03:25.658Z,6.40
2022-11-28T23:05:54.152Z,6.40
2022-11-28T23:08:22.269Z,6.40
2022-11-28T23:10:51.997Z,6.40
2022-11-28T23:13:21.692Z,6.40
2022-11-28T23:15:52.887Z,6.41
2022-11-28T23:18:22.165Z,6.43
2022-11-28T23:20:52.377Z,6.44
2022-11-28T23:23:22.128Z,6.44
2022-11-28T23:25:51.944Z,6.45
2022-11-28T23:28:21.339Z,6.44
2022-11-28T23:30:50.808Z,6.43
2022-11-28T23:33:19.583Z,6.43
2022-11-28T23:35:48.869Z,6.41
2022-11-28T23:38:25.774Z,6.43
2022-11-28T23:40:57.699Z,6.42
2022-11-28T23:43:26.747Z,6.42
2022-11-28T23:45:55.140Z,6.39
2022-11-28T23:48:25.347Z,6.39
2022-11-28T23:50:53.585Z,6.37
2022-11-28T23:53:22.711Z,6.37
2022-11-28T23:55:53.141Z,6.36
2022-11-28T23:58:23.191Z,6.36
